Weather at Tupai Airport

Public forecast

Using degrees Celsius for public forecast. Weather courtesy of forecast.io.

Closest aviation weather report (METAR) to Tupai Airport

Closest report is Faa'a International Airport, 150.2 nm (278.2 km) ESE.

2022/12/08 13:00 (retrieved 20 minutes ago)

NTAA 081300Z VRB03KT 9999 FEW028 BKN260 24/20 Q1013 NOSIG

Closest aviation forecast (TAF) to Tupai Airport

Closest forecast is Faa'a International Airport, 150.2 nm (278.2 km) ESE.

2022/12/08 12:06 (retrieved 1 hour ago)

TAF NTAA 081100Z 0812/0918 07008KT 9999 FEW025 BKN250 TEMPO 0820/0901 05015G25KT